Time;durP1;ratioP1;P1;durP2;ratioP2;P2;SDS_P1;SDS_P2;PMS_P1;PMS_P2;Temp;Humidity;BMP_temperature;BMP_pressure;BME280_temperature;BME280_humidity;BME280_pressure;Samples;Min_cycle;Max_cycle;Signal;HPM_P1;HPM_P2
2022/08/21 00:01:45;;;;;;;63.00;11.23;;;;;;;;;;4246141;33;20513;-69
2022/08/21 00:04:11;;;;;;;124.65;20.75;;;;;;;;;;4244787;33;20525;-69
2022/08/21 00:36:00;;;;;;;38.92;6.37;;;;;;;;;;4295279;28;20194;-61
2022/08/21 00:38:26;;;;;;;31.40;6.72;;;;;;;;;;4260534;33;20100;-60
2022/08/21 00:40:55;;;;;;;42.70;7.55;;;;;;;;;;4262240;33;20135;-61
2022/08/21 00:43:24;;;;;;;29.27;4.95;;;;;;;;;;4262397;33;20187;-61
2022/08/21 00:45:50;;;;;;;33.83;7.37;;;;;;;;;;4261782;33;20531;-66
2022/08/21 00:48:17;;;;;;;50.33;8.75;;;;;;;;;;4261917;33;20095;-67
2022/08/21 00:50:51;;;;;;;54.17;7.97;;;;;;;;;;4262330;33;20096;-67
2022/08/21 00:53:17;;;;;;;97.03;15.10;;;;;;;;;;4261985;33;20524;-67
2022/08/21 00:55:44;;;;;;;74.50;11.12;;;;;;;;;;4262134;33;20115;-67
2022/08/21 00:58:12;;;;;;;90.95;12.45;;;;;;;;;;4262154;33;20117;-67
2022/08/21 01:00:40;;;;;;;91.05;13.27;;;;;;;;;;4248722;33;20135;-67
2022/08/21 01:03:10;;;;;;;109.55;15.25;;;;;;;;;;4261888;33;20101;-61
2022/08/21 01:05:37;;;;;;;145.65;18.17;;;;;;;;;;4249001;33;20202;-61
2022/08/21 01:08:05;;;;;;;109.90;16.02;;;;;;;;;;4261723;33;20211;-61
2022/08/21 01:10:31;;;;;;;99.78;11.80;;;;;;;;;;4248433;33;20094;-61
2022/08/21 01:12:58;;;;;;;44.45;9.95;;;;;;;;;;4261622;33;20107;-60
2022/08/21 01:15:28;;;;;;;57.35;9.73;;;;;;;;;;4262078;33;20111;-61
2022/08/21 01:17:54;;;;;;;32.40;6.78;;;;;;;;;;4261768;33;20125;-60
2022/08/21 01:20:20;;;;;;;28.92;6.32;;;;;;;;;;4261799;33;20123;-61
2022/08/21 01:22:46;;;;;;;33.25;6.40;;;;;;;;;;4261600;33;20111;-67
2022/08/21 01:25:15;;;;;;;37.58;6.53;;;;;;;;;;4261712;33;20108;-67
2022/08/21 01:27:42;;;;;;;33.55;7.57;;;;;;;;;;4248368;33;20199;-67
2022/08/21 01:30:11;;;;;;;75.25;10.95;;;;;;;;;;4248489;33;20187;-67
2022/08/21 01:32:37;;;;;;;56.10;10.00;;;;;;;;;;4248395;33;20535;-67
2022/08/21 01:35:05;;;;;;;52.10;7.47;;;;;;;;;;4261056;33;20108;-67
2022/08/21 01:37:31;;;;;;;42.03;7.97;;;;;;;;;;4261397;33;20187;-67
2022/08/21 01:39:57;;;;;;;32.13;6.20;;;;;;;;;;4261557;33;20112;-67
2022/08/21 01:42:23;;;;;;;31.35;6.37;;;;;;;;;;4261508;33;20111;-66
2022/08/21 01:44:49;;;;;;;30.23;6.45;;;;;;;;;;4261338;33;20204;-67
2022/08/21 01:47:16;;;;;;;16.67;5.47;;;;;;;;;;4261382;33;20143;-67
2022/08/21 01:49:42;;;;;;;27.73;5.53;;;;;;;;;;4261484;33;20194;-67
2022/08/21 01:52:09;;;;;;;17.92;5.53;;;;;;;;;;4261305;33;20115;-66
2022/08/21 01:54:35;;;;;;;12.63;5.37;;;;;;;;;;4261352;33;20104;-66
2022/08/21 01:57:02;;;;;;;24.98;5.35;;;;;;;;;;4261584;33;20195;-67
2022/08/21 01:59:28;;;;;;;16.08;5.72;;;;;;;;;;4248468;33;20547;-67
2022/08/21 02:01:55;;;;;;;15.02;4.97;;;;;;;;;;4261290;33;20492;-67
2022/08/21 02:04:21;;;;;;;18.58;4.93;;;;;;;;;;4261329;33;20134;-67
2022/08/21 02:06:47;;;;;;;17.50;5.53;;;;;;;;;;4261321;33;20127;-67
2022/08/21 02:09:14;;;;;;;13.48;5.00;;;;;;;;;;4261156;33;20138;-67
2022/08/21 02:11:40;;;;;;;13.48;4.93;;;;;;;;;;4248195;33;20161;-67
2022/08/21 02:14:08;;;;;;;12.02;4.75;;;;;;;;;;4261424;33;20195;-67
2022/08/21 02:16:34;;;;;;;17.40;5.30;;;;;;;;;;4248027;33;20134;-67
2022/08/21 02:19:00;;;;;;;21.48;6.20;;;;;;;;;;4261063;33;20441;-67
2022/08/21 02:21:26;;;;;;;74.62;10.13;;;;;;;;;;4261172;33;20111;-67
2022/08/21 02:23:52;;;;;;;70.80;10.18;;;;;;;;;;4260939;33;20105;-67
2022/08/21 02:26:18;;;;;;;59.92;8.80;;;;;;;;;;4261087;33;20203;-67
2022/08/21 02:28:44;;;;;;;56.80;8.80;;;;;;;;;;4260875;33;20200;-67
2022/08/21 02:31:10;;;;;;;41.40;9.18;;;;;;;;;;4260967;33;20115;-67
2022/08/21 02:33:36;;;;;;;48.85;8.88;;;;;;;;;;4261291;33;20184;-66
2022/08/21 02:36:03;;;;;;;36.00;8.20;;;;;;;;;;4248026;33;20119;-67
2022/08/21 02:38:37;;;;;;;42.90;7.85;;;;;;;;;;4261192;33;20124;-67
2022/08/21 02:41:08;;;;;;;20.15;7.75;;;;;;;;;;4260950;33;20155;-67
2022/08/21 02:43:35;;;;;;;17.12;6.53;;;;;;;;;;4261073;33;20121;-67
2022/08/21 02:46:03;;;;;;;14.48;7.10;;;;;;;;;;4260902;33;20118;-67
2022/08/21 02:48:30;;;;;;;19.27;7.57;;;;;;;;;;4261045;33;20088;-67
2022/08/21 02:50:59;;;;;;;20.80;8.20;;;;;;;;;;4261076;33;20535;-67
2022/08/21 02:53:26;;;;;;;21.40;8.00;;;;;;;;;;4261114;33;20093;-67
2022/08/21 02:55:52;;;;;;;19.90;7.72;;;;;;;;;;4260249;33;20207;-67
2022/08/21 02:58:25;;;;;;;15.05;7.50;;;;;;;;;;4261017;33;20115;-67
2022/08/21 03:00:51;;;;;;;23.12;8.85;;;;;;;;;;4260963;33;20118;-67
2022/08/21 03:03:17;;;;;;;27.33;10.20;;;;;;;;;;4260735;33;20116;-67
2022/08/21 03:05:44;;;;;;;27.70;10.55;;;;;;;;;;4260884;33;20116;-67
2022/08/21 03:08:12;;;;;;;32.38;11.63;;;;;;;;;;4260901;33;20084;-67
2022/08/21 03:10:39;;;;;;;23.70;9.57;;;;;;;;;;4260984;33;20536;-67
2022/08/21 03:13:06;;;;;;;22.77;10.52;;;;;;;;;;4260648;33;20123;-67
2022/08/21 03:15:32;;;;;;;27.15;9.10;;;;;;;;;;4260605;33;20100;-67
2022/08/21 03:17:58;;;;;;;20.37;9.18;;;;;;;;;;4260957;33;20096;-67
2022/08/21 03:20:27;;;;;;;19.92;8.60;;;;;;;;;;4261018;33;20096;-67
2022/08/21 03:22:54;;;;;;;22.87;8.70;;;;;;;;;;4260830;33;20104;-67
2022/08/21 03:25:22;;;;;;;16.27;8.13;;;;;;;;;;4260483;33;20099;-67
2022/08/21 03:27:48;;;;;;;22.48;8.32;;;;;;;;;;4260458;33;20185;-67
2022/08/21 03:30:17;;;;;;;21.08;8.15;;;;;;;;;;4260602;33;20120;-67
2022/08/21 03:32:43;;;;;;;15.98;7.43;;;;;;;;;;4255951;33;20546;-67
2022/08/21 03:35:09;;;;;;;17.08;7.93;;;;;;;;;;4246157;33;20115;-67
2022/08/21 03:37:36;;;;;;;27.50;7.55;;;;;;;;;;4248690;33;20191;-67
2022/08/21 03:40:04;;;;;;;21.52;8.02;;;;;;;;;;4260429;33;20100;-67
2022/08/21 03:42:30;;;;;;;20.15;7.68;;;;;;;;;;4260280;33;20092;-67
2022/08/21 03:44:56;;;;;;;15.00;7.55;;;;;;;;;;4260680;33;20183;-67
2022/08/21 03:47:22;;;;;;;17.45;8.65;;;;;;;;;;4260250;33;20119;-67
2022/08/21 03:49:48;;;;;;;11.90;7.03;;;;;;;;;;4260274;33;20530;-67
2022/08/21 03:52:15;;;;;;;11.63;7.72;;;;;;;;;;4260368;33;20132;-67
2022/08/21 03:54:41;;;;;;;18.12;7.15;;;;;;;;;;4260460;33;20081;-67
2022/08/21 03:57:09;;;;;;;17.58;8.43;;;;;;;;;;4259776;33;20091;-67
2022/08/21 03:59:35;;;;;;;14.77;8.05;;;;;;;;;;4260122;33;20115;-67
2022/08/21 04:02:03;;;;;;;25.02;8.57;;;;;;;;;;4260162;33;20101;-67
2022/08/21 04:04:30;;;;;;;16.92;8.23;;;;;;;;;;4260096;33;20105;-67
2022/08/21 04:06:56;;;;;;;23.45;9.25;;;;;;;;;;4260282;33;20099;-67
2022/08/21 04:09:23;;;;;;;20.05;9.02;;;;;;;;;;4260109;33;20504;-67
2022/08/21 04:11:49;;;;;;;18.23;8.82;;;;;;;;;;4260075;33;20195;-67
2022/08/21 04:14:16;;;;;;;18.52;8.57;;;;;;;;;;4260031;33;20563;-67
2022/08/21 04:16:42;;;;;;;19.52;8.77;;;;;;;;;;4247080;33;20183;-67
2022/08/21 04:19:09;;;;;;;22.52;9.52;;;;;;;;;;4246888;33;20111;-67
2022/08/21 04:21:39;;;;;;;16.92;8.13;;;;;;;;;;4260017;33;20456;-67
2022/08/21 04:24:07;;;;;;;19.42;8.90;;;;;;;;;;4259860;33;20112;-67
2022/08/21 04:26:34;;;;;;;23.10;10.48;;;;;;;;;;4259905;33;20120;-67
2022/08/21 04:29:00;;;;;;;21.25;9.38;;;;;;;;;;4259774;33;20131;-67
2022/08/21 04:31:28;;;;;;;29.27;10.45;;;;;;;;;;4259895;33;20451;-68
2022/08/21 04:33:56;;;;;;;24.02;10.50;;;;;;;;;;4259990;33;20095;-67
2022/08/21 04:36:22;;;;;;;22.73;12.02;;;;;;;;;;4259829;33;20179;-67
2022/08/21 04:38:49;;;;;;;23.48;10.95;;;;;;;;;;4246800;33;20923;-67
2022/08/21 04:41:15;;;;;;;26.12;11.73;;;;;;;;;;4260052;33;20120;-66
2022/08/21 04:43:41;;;;;;;25.25;11.88;;;;;;;;;;4259844;33;20200;-67
2022/08/21 04:46:07;;;;;;;20.17;10.57;;;;;;;;;;4246681;33;20524;-66
2022/08/21 04:48:33;;;;;;;29.60;11.85;;;;;;;;;;4256067;33;20089;-67
2022/08/21 04:51:43;;;;;;;23.67;10.90;;;;;;;;;;4259547;33;20120;-67
2022/08/21 04:54:17;;;;;;;23.60;9.48;;;;;;;;;;4250025;33;20113;-67
2022/08/21 04:56:47;;;;;;;20.65;9.82;;;;;;;;;;4246552;33;20111;-67
2022/08/21 04:59:20;;;;;;;22.55;10.70;;;;;;;;;;4246404;33;20179;-66
2022/08/21 05:01:47;;;;;;;23.12;9.52;;;;;;;;;;4245642;33;20158;-66
2022/08/21 05:04:15;;;;;;;29.30;10.68;;;;;;;;;;4258850;33;20132;-66
2022/08/21 05:06:44;;;;;;;29.30;12.00;;;;;;;;;;4246563;33;20142;-66
2022/08/21 05:09:13;;;;;;;32.30;11.02;;;;;;;;;;4247134;33;20105;-66
2022/08/21 05:11:39;;;;;;;19.08;9.98;;;;;;;;;;4261854;33;20121;-66
2022/08/21 05:14:05;;;;;;;26.50;10.65;;;;;;;;;;4261609;33;20120;-68
2022/08/21 05:16:31;;;;;;;28.12;11.68;;;;;;;;;;4261956;33;20135;-67
2022/08/21 05:18:58;;;;;;;30.27;12.37;;;;;;;;;;4261895;33;20552;-67
2022/08/21 05:21:24;;;;;;;42.83;13.10;;;;;;;;;;4261726;33;20112;-67
2022/08/21 05:23:50;;;;;;;36.90;14.02;;;;;;;;;;4261516;33;20114;-68
2022/08/21 05:26:16;;;;;;;38.63;15.65;;;;;;;;;;4261553;33;20127;-66
2022/08/21 05:28:42;;;;;;;43.15;15.95;;;;;;;;;;4261460;33;20124;-68
2022/08/21 05:31:08;;;;;;;49.38;16.87;;;;;;;;;;4261647;33;20128;-68
2022/08/21 05:33:34;;;;;;;33.42;11.95;;;;;;;;;;4261637;33;20226;-67
2022/08/21 05:36:00;;;;;;;25.23;9.52;;;;;;;;;;4261407;33;20208;-67
2022/08/21 05:38:28;;;;;;;20.15;8.90;;;;;;;;;;4261386;33;20110;-66
2022/08/21 05:40:54;;;;;;;22.42;9.50;;;;;;;;;;4261496;33;20112;-67
2022/08/21 05:43:20;;;;;;;33.58;10.60;;;;;;;;;;4261646;33;20120;-67
2022/08/21 05:45:47;;;;;;;25.45;11.38;;;;;;;;;;4261501;33;20115;-67
2022/08/21 05:48:23;;;;;;;33.45;11.75;;;;;;;;;;4261570;33;20081;-67
2022/08/21 05:50:51;;;;;;;59.10;15.43;;;;;;;;;;4261585;33;20112;-67
2022/08/21 05:53:18;;;;;;;51.92;16.95;;;;;;;;;;4261339;33;20437;-67
2022/08/21 05:55:45;;;;;;;53.75;18.58;;;;;;;;;;4261664;33;20100;-67
2022/08/21 05:58:15;;;;;;;50.72;14.75;;;;;;;;;;4261324;33;20122;-67
2022/08/21 06:00:41;;;;;;;46.22;15.45;;;;;;;;;;4247952;33;20115;-66
2022/08/21 06:03:19;;;;;;;58.35;18.42;;;;;;;;;;4261311;33;20106;-67
2022/08/21 06:05:45;;;;;;;50.60;15.30;;;;;;;;;;4261253;33;20131;-68
2022/08/21 06:08:11;;;;;;;43.90;14.65;;;;;;;;;;4261184;33;20496;-67
2022/08/21 06:10:38;;;;;;;48.15;16.33;;;;;;;;;;4261375;33;20534;-67
2022/08/21 06:13:05;;;;;;;42.85;14.98;;;;;;;;;;4261285;33;20103;-68
2022/08/21 06:15:31;;;;;;;41.17;13.00;;;;;;;;;;4261287;33;20175;-67
2022/08/21 06:17:56;;;;;;;36.90;13.68;;;;;;;;;;4261424;33;20119;-66
2022/08/21 06:20:23;;;;;;;34.58;12.75;;;;;;;;;;4261303;33;20111;-67
2022/08/21 06:22:49;;;;;;;29.25;10.55;;;;;;;;;;4261135;33;20100;-67
2022/08/21 06:25:15;;;;;;;31.20;12.10;;;;;;;;;;4261358;33;20138;-66
2022/08/21 06:27:41;;;;;;;31.75;13.38;;;;;;;;;;4260984;33;20096;-66
2022/08/21 06:30:07;;;;;;;36.97;12.45;;;;;;;;;;4261147;33;20168;-67
2022/08/21 06:32:34;;;;;;;19.92;9.38;;;;;;;;;;4261084;33;20096;-67
2022/08/21 06:35:00;;;;;;;19.87;7.70;;;;;;;;;;4260992;33;20571;-67
2022/08/21 06:37:27;;;;;;;19.40;9.88;;;;;;;;;;4261054;33;20172;-67
2022/08/21 06:39:53;;;;;;;22.02;8.40;;;;;;;;;;4250120;33;20554;-67
2022/08/21 06:42:19;;;;;;;12.48;5.57;;;;;;;;;;4246934;33;20109;-67
2022/08/21 06:44:45;;;;;;;13.60;6.10;;;;;;;;;;4246783;33;20211;-67
2022/08/21 06:47:11;;;;;;;11.32;5.43;;;;;;;;;;4233634;33;20126;-67
2022/08/21 06:49:37;;;;;;;14.90;5.43;;;;;;;;;;4246852;33;20586;-67
2022/08/21 06:52:03;;;;;;;9.20;5.43;;;;;;;;;;4246795;33;20591;-66
2022/08/21 06:54:30;;;;;;;19.95;6.93;;;;;;;;;;4246983;33;20101;-67
2022/08/21 06:56:56;;;;;;;14.60;6.55;;;;;;;;;;4246797;33;20123;-65
2022/08/21 06:59:22;;;;;;;11.48;5.75;;;;;;;;;;4247030;33;20474;-67
2022/08/21 07:01:48;;;;;;;8.73;4.53;;;;;;;;;;4246773;33;20101;-65
2022/08/21 07:04:14;;;;;;;8.13;4.65;;;;;;;;;;4246630;33;20675;-67
2022/08/21 07:06:40;;;;;;;6.93;4.45;;;;;;;;;;4246593;33;20508;-66
2022/08/21 07:09:06;;;;;;;7.78;4.43;;;;;;;;;;4246580;33;20524;-66
2022/08/21 07:11:32;;;;;;;11.55;4.70;;;;;;;;;;4246540;33;20097;-66
2022/08/21 07:13:58;;;;;;;8.77;4.45;;;;;;;;;;4246401;33;20519;-67
2022/08/21 07:16:24;;;;;;;5.75;3.85;;;;;;;;;;4246385;33;20211;-67
2022/08/21 07:18:50;;;;;;;8.38;3.50;;;;;;;;;;4246440;33;20105;-67
2022/08/21 07:21:16;;;;;;;7.65;4.05;;;;;;;;;;4246141;33;20111;-66
2022/08/21 07:23:46;;;;;;;9.13;3.83;;;;;;;;;;4251996;33;20116;-67
2022/08/21 07:26:13;;;;;;;6.75;4.32;;;;;;;;;;4246414;33;20545;-66
2022/08/21 07:28:39;;;;;;;5.45;3.78;;;;;;;;;;4246194;33;20096;-67
2022/08/21 07:31:06;;;;;;;6.80;3.90;;;;;;;;;;4246401;33;20126;-67
2022/08/21 07:33:33;;;;;;;10.25;4.32;;;;;;;;;;4250897;33;20097;-66
2022/08/21 07:36:00;;;;;;;7.82;4.28;;;;;;;;;;4246334;33;20754;-72
2022/08/21 07:38:26;;;;;;;8.50;4.62;;;;;;;;;;4256939;33;20128;-70
2022/08/21 07:40:55;;;;;;;10.27;4.35;;;;;;;;;;4246881;33;20685;-67
2022/08/21 07:43:21;;;;;;;10.38;4.18;;;;;;;;;;4247173;33;20126;-65
2022/08/21 07:45:49;;;;;;;8.52;4.12;;;;;;;;;;4258877;33;20567;-67
2022/08/21 07:48:15;;;;;;;4.87;3.87;;;;;;;;;;4247170;33;20522;-64
2022/08/21 07:50:42;;;;;;;6.40;3.95;;;;;;;;;;4260426;33;20108;-68
2022/08/21 07:53:08;;;;;;;4.50;3.72;;;;;;;;;;4260512;33;20206;-70
2022/08/21 07:55:34;;;;;;;10.07;3.78;;;;;;;;;;4260310;33;20202;-67
2022/08/21 07:58:00;;;;;;;13.68;3.95;;;;;;;;;;4259735;33;20113;-66
2022/08/21 08:00:28;;;;;;;6.28;4.05;;;;;;;;;;4260279;33;20128;-70
2022/08/21 08:02:54;;;;;;;6.22;4.20;;;;;;;;;;4260254;33;20456;-67
2022/08/21 08:05:25;;;;;;;7.47;3.75;;;;;;;;;;4260046;33;20464;-66
2022/08/21 08:07:51;;;;;;;6.45;4.00;;;;;;;;;;4260089;33;20155;-66
2022/08/21 08:10:17;;;;;;;6.20;3.15;;;;;;;;;;4260304;33;20120;-68
2022/08/21 08:12:44;;;;;;;9.20;3.90;;;;;;;;;;4246880;33;20118;-64
2022/08/21 08:15:13;;;;;;;6.20;4.35;;;;;;;;;;4246373;33;20096;-66
2022/08/21 08:17:39;;;;;;;5.18;4.10;;;;;;;;;;4258490;33;20480;-65
2022/08/21 08:20:07;;;;;;;2.30;1.75;;;;;;;;;;4255490;33;20145;-66
2022/08/21 08:22:37;;;;;;;6.82;2.97;;;;;;;;;;4253001;33;20187;-66
2022/08/21 08:25:04;;;;;;;8.50;4.03;;;;;;;;;;4251966;33;20131;-68
2022/08/21 08:27:31;;;;;;;5.53;3.67;;;;;;;;;;4255430;33;20503;-68
2022/08/21 08:29:57;;;;;;;5.90;3.95;;;;;;;;;;4242019;33;20108;-67
2022/08/21 08:32:23;;;;;;;5.55;3.90;;;;;;;;;;4255697;33;20113;-67
2022/08/21 08:34:51;;;;;;;8.10;3.75;;;;;;;;;;4254973;33;20143;-68
2022/08/21 08:37:18;;;;;;;8.02;3.50;;;;;;;;;;4245556;33;20140;-66
2022/08/21 08:39:45;;;;;;;5.30;3.17;;;;;;;;;;4243328;33;20127;-67
2022/08/21 08:42:26;;;;;;;7.50;4.70;;;;;;;;;;4243290;33;20117;-66
2022/08/21 08:44:57;;;;;;;5.18;4.22;;;;;;;;;;4243658;33;20124;-66
2022/08/21 08:47:26;;;;;;;5.32;3.70;;;;;;;;;;4258215;33;20128;-68
2022/08/21 08:49:52;;;;;;;7.50;4.47;;;;;;;;;;4246890;33;20124;-66
2022/08/21 08:52:23;;;;;;;6.75;4.60;;;;;;;;;;4242502;33;20107;-67
2022/08/21 08:54:52;;;;;;;15.93;4.05;;;;;;;;;;4242135;33;20187;-66
2022/08/21 08:57:20;;;;;;;4.90;4.05;;;;;;;;;;4241782;33;20093;-66
2022/08/21 08:59:52;;;;;;;8.45;4.05;;;;;;;;;;4254739;33;20117;-67
2022/08/21 09:02:20;;;;;;;4.53;3.58;;;;;;;;;;4254061;33;20100;-67
2022/08/21 09:04:48;;;;;;;6.93;4.35;;;;;;;;;;4258133;33;20128;-69
2022/08/21 09:07:40;;;;;;;4.55;2.45;;;;;;;;;;4247815;33;20180;-68
2022/08/21 09:10:12;;;;;;;6.65;3.87;;;;;;;;;;4247006;33;20596;-68
2022/08/21 09:13:03;;;;;;;7.12;3.55;;;;;;;;;;4259728;33;20217;-68
2022/08/21 09:15:42;;;;;;;7.80;4.35;;;;;;;;;;4260471;33;20204;-70
2022/08/21 09:18:29;;;;;;;6.80;3.87;;;;;;;;;;4261506;33;20426;-67
2022/08/21 09:21:09;;;;;;;7.57;4.32;;;;;;;;;;4260614;33;20112;-66
2022/08/21 09:23:35;;;;;;;9.18;3.90;;;;;;;;;;4248619;33;20099;-68
2022/08/21 09:26:14;;;;;;;11.38;4.65;;;;;;;;;;4248480;33;20199;-67
2022/08/21 09:28:43;;;;;;;7.75;4.43;;;;;;;;;;4261332;33;20097;-69
2022/08/21 09:31:37;;;;;;;5.40;3.90;;;;;;;;;;4261510;33;20189;-69
2022/08/21 09:34:05;;;;;;;4.10;3.42;;;;;;;;;;4259802;33;20107;-67
2022/08/21 09:36:51;;;;;;;3.15;1.75;;;;;;;;;;4248657;33;20480;-66
2022/08/21 09:39:33;;;;;;;4.43;3.50;;;;;;;;;;4261145;33;20116;-67
2022/08/21 09:42:02;;;;;;;6.57;3.53;;;;;;;;;;4248241;33;20226;-68
2022/08/21 09:44:29;;;;;;;1.87;1.77;;;;;;;;;;4248459;33;20264;-69
2022/08/21 09:46:56;;;;;;;10.23;1.80;;;;;;;;;;4261636;33;20091;-67
2022/08/21 09:49:34;;;;;;;14.30;3.87;;;;;;;;;;4248165;33;20180;-69
2022/08/21 09:52:02;;;;;;;2.33;2.12;;;;;;;;;;4248481;33;20211;-65
2022/08/21 09:54:33;;;;;;;3.87;3.45;;;;;;;;;;4247949;33;20116;-67
2022/08/21 10:00:16;;;;;;;2.45;2.25;;;;;;;;;;4261253;33;20136;-69
2022/08/21 10:02:42;;;;;;;2.53;2.05;;;;;;;;;;4245343;33;20457;-68
2022/08/21 10:05:17;;;;;;;5.97;2.70;;;;;;;;;;4261322;33;20190;-67
2022/08/21 10:07:43;;;;;;;8.73;4.37;;;;;;;;;;4261336;33;20123;-70
2022/08/21 10:10:20;;;;;;;7.20;3.58;;;;;;;;;;4248283;33;20124;-71
2022/08/21 10:12:58;;;;;;;2.53;1.65;;;;;;;;;;4248097;33;20193;-67
2022/08/21 10:15:48;;;;;;;8.50;3.20;;;;;;;;;;4261222;33;20089;-67
2022/08/21 10:18:42;;;;;;;4.90;2.97;;;;;;;;;;4261165;33;20080;-67
2022/08/21 10:21:17;;;;;;;6.87;3.72;;;;;;;;;;4245369;33;20117;-67
2022/08/21 10:23:42;;;;;;;;;;;;;;;;;;4234209;33;20101;-66
2022/08/21 10:26:20;;;;;;;8.50;5.20;;;;;;;;;;4245766;33;20052;-67
2022/08/21 10:29:08;;;;;;;7.60;4.95;;;;;;;;;;4233675;33;20450;-67
2022/08/21 10:31:46;;;;;;;4.65;2.85;;;;;;;;;;4247170;33;20199;-67
2022/08/21 10:34:30;;;;;;;1.35;1.35;;;;;;;;;;4247114;33;20113;-67
2022/08/21 10:37:05;;;;;;;5.37;3.12;;;;;;;;;;4254943;33;20563;-67
2022/08/21 10:39:40;;;;;;;2.72;2.40;;;;;;;;;;4261889;33;20120;-67
2022/08/21 10:42:41;;;;;;;2.37;1.98;;;;;;;;;;4248936;33;20104;-67
2022/08/21 10:45:15;;;;;;;8.20;2.70;;;;;;;;;;4242494;33;20196;-67
2022/08/21 10:47:44;;;;;;;7.68;4.47;;;;;;;;;;4261180;33;20115;-66
2022/08/21 10:50:25;;;;;;;1.00;1.00;;;;;;;;;;4261094;33;20114;-68
2022/08/21 10:53:12;;;;;;;2.12;1.90;;;;;;;;;;4248038;33;20112;-67
2022/08/21 10:55:46;;;;;;;2.72;1.83;;;;;;;;;;4247916;33;20164;-68
2022/08/21 10:58:29;;;;;;;1.58;1.35;;;;;;;;;;4247585;33;20536;-68
2022/08/21 11:01:01;;;;;;;7.25;3.25;;;;;;;;;;4260757;33;20131;-67
2022/08/21 11:03:34;;;;;;;3.47;2.55;;;;;;;;;;4247577;33;20101;-68
2022/08/21 11:06:27;;;;;;;7.95;5.20;;;;;;;;;;4260406;33;20113;-68
2022/08/21 11:09:14;;;;;;;8.63;4.32;;;;;;;;;;4259997;33;20501;-68
2022/08/21 11:11:52;;;;;;;4.37;1.77;;;;;;;;;;4260693;33;20124;-70
2022/08/21 11:14:39;;;;;;;5.68;3.67;;;;;;;;;;4235880;33;20585;-68
2022/08/21 11:17:07;;;;;;;3.87;3.12;;;;;;;;;;4247606;33;20468;-71
2022/08/21 11:19:39;;;;;;;5.12;3.85;;;;;;;;;;4260564;33;20679;-70
2022/08/21 11:22:23;;;;;;;4.30;3.85;;;;;;;;;;4260816;33;20622;-69
2022/08/21 11:24:51;;;;;;;10.88;4.72;;;;;;;;;;4260769;33;20122;-69
2022/08/21 11:27:44;;;;;;;4.95;2.78;;;;;;;;;;4247573;33;20103;-70
2022/08/21 11:30:10;;;;;;;4.15;3.00;;;;;;;;;;4255853;33;20113;-66
2022/08/21 11:32:54;;;;;;;6.32;4.25;;;;;;;;;;4260485;33;20099;-68
2022/08/21 11:35:23;;;;;;;9.35;3.60;;;;;;;;;;4260182;33;20135;-68
2022/08/21 11:37:58;;;;;;;5.75;4.00;;;;;;;;;;4247265;33;20127;-66
2022/08/21 11:40:39;;;;;;;7.03;4.65;;;;;;;;;;4260674;33;20109;-69
2022/08/21 11:43:16;;;;;;;6.75;3.33;;;;;;;;;;4246688;33;20120;-68
2022/08/21 11:45:50;;;;;;;5.97;3.22;;;;;;;;;;4258544;33;20108;-68
2022/08/21 11:48:43;;;;;;;8.10;3.83;;;;;;;;;;4260169;33;21648;-68
2022/08/21 11:51:19;;;;;;;4.68;3.08;;;;;;;;;;4245404;33;20196;-69
2022/08/21 11:54:02;;;;;;;4.18;3.08;;;;;;;;;;4235243;33;20195;-69
2022/08/21 11:56:42;;;;;;;10.40;3.58;;;;;;;;;;4260257;33;20610;-69
2022/08/21 11:59:24;;;;;;;5.28;3.42;;;;;;;;;;4246968;33;20543;-70
2022/08/21 12:01:50;;;;;;;6.75;3.90;;;;;;;;;;4260204;33;20116;-69
2022/08/21 12:04:28;;;;;;;5.05;3.75;;;;;;;;;;4260217;33;20109;-69
2022/08/21 12:06:55;;;;;;;5.22;3.33;;;;;;;;;;4246622;33;20543;-68
2022/08/21 12:09:23;;;;;;;8.68;3.97;;;;;;;;;;4254680;33;20120;-68
2022/08/21 12:12:04;;;;;;;4.90;3.17;;;;;;;;;;4250270;33;20120;-66
2022/08/21 12:14:43;;;;;;;6.12;3.33;;;;;;;;;;4245649;33;20128;-65
2022/08/21 12:17:23;;;;;;;6.40;3.35;;;;;;;;;;4257356;33;20128;-67
2022/08/21 12:20:00;;;;;;;6.10;3.78;;;;;;;;;;4259442;33;20532;-67
2022/08/21 12:22:38;;;;;;;5.55;3.37;;;;;;;;;;4248266;33;20199;-66
2022/08/21 12:25:10;;;;;;;5.32;3.47;;;;;;;;;;4237166;33;20132;-69
2022/08/21 12:27:53;;;;;;;6.90;4.50;;;;;;;;;;4248898;33;20512;-68
2022/08/21 12:30:26;;;;;;;6.85;4.60;;;;;;;;;;4249076;33;20139;-66
2022/08/21 12:32:57;;;;;;;5.30;3.87;;;;;;;;;;4261786;33;20115;-69
2022/08/21 12:35:26;;;;;;;5.78;3.50;;;;;;;;;;4239564;33;20104;-69
2022/08/21 12:37:59;;;;;;;10.48;3.90;;;;;;;;;;4240008;33;20100;-66
2022/08/21 12:40:31;;;;;;;5.37;3.55;;;;;;;;;;4262095;33;20126;-67
2022/08/21 12:42:59;;;;;;;5.10;3.00;;;;;;;;;;4253884;33;20116;-65
2022/08/21 12:45:31;;;;;;;6.68;3.83;;;;;;;;;;4244826;33;20128;-66
2022/08/21 12:48:06;;;;;;;4.75;3.60;;;;;;;;;;4259977;33;20112;-66
2022/08/21 12:50:56;;;;;;;6.30;3.50;;;;;;;;;;4247947;33;20557;-66
2022/08/21 12:53:50;;;;;;;6.28;3.92;;;;;;;;;;4246186;33;20513;-66
2022/08/21 12:56:27;;;;;;;12.82;5.15;;;;;;;;;;4244455;33;20213;-64
2022/08/21 12:59:13;;;;;;;11.55;5.07;;;;;;;;;;4253602;33;20623;-64
2022/08/21 13:01:45;;;;;;;3.17;2.37;;;;;;;;;;4241227;33;20156;-64
2022/08/21 13:04:17;;;;;;;9.23;5.90;;;;;;;;;;4240102;33;20555;-67
2022/08/21 13:06:47;;;;;;;2.83;2.50;;;;;;;;;;4257549;33;20125;-64
2022/08/21 13:09:19;;;;;;;6.20;4.15;;;;;;;;;;4261034;33;20123;-64
2022/08/21 13:11:47;;;;;;;5.78;3.95;;;;;;;;;;4247594;33;20496;-65
2022/08/21 13:14:40;;;;;;;6.97;4.50;;;;;;;;;;4260649;33;20104;-65
2022/08/21 13:17:06;;;;;;;7.12;4.20;;;;;;;;;;4258458;33;20534;-64
2022/08/21 13:19:33;;;;;;;4.75;3.72;;;;;;;;;;4261046;33;20120;-65
2022/08/21 13:22:00;;;;;;;8.30;4.82;;;;;;;;;;4261537;33;20198;-67
2022/08/21 13:24:32;;;;;;;6.03;4.37;;;;;;;;;;4261594;33;20190;-66
2022/08/21 13:26:59;;;;;;;5.32;3.65;;;;;;;;;;4260957;33;20438;-69
2022/08/21 13:29:30;;;;;;;5.97;4.07;;;;;;;;;;4239098;33;20113;-69
2022/08/21 13:32:03;;;;;;;8.88;4.07;;;;;;;;;;4247893;33;21746;-68
2022/08/21 13:34:34;;;;;;;6.90;4.80;;;;;;;;;;4233654;33;20188;-68
2022/08/21 13:37:03;;;;;;;6.25;4.32;;;;;;;;;;4242983;33;20200;-68
2022/08/21 13:39:29;;;;;;;6.18;3.67;;;;;;;;;;4260192;33;20512;-68
2022/08/21 13:41:57;;;;;;;9.50;4.68;;;;;;;;;;4246399;33;20111;-69
2022/08/21 13:44:30;;;;;;;8.80;5.35;;;;;;;;;;4245654;33;20223;-69
2022/08/21 13:46:57;;;;;;;7.57;4.78;;;;;;;;;;4247462;33;20120;-67
2022/08/21 13:49:31;;;;;;;12.25;4.12;;;;;;;;;;4246053;33;20124;-67
2022/08/21 13:51:57;;;;;;;7.12;3.67;;;;;;;;;;4244495;33;20139;-65
2022/08/21 13:54:33;;;;;;;5.07;3.15;;;;;;;;;;4245167;33;20112;-69
2022/08/21 13:56:59;;;;;;;5.05;3.47;;;;;;;;;;4258063;33;20574;-67
2022/08/21 13:59:31;;;;;;;6.45;4.78;;;;;;;;;;4245950;33;20128;-66
2022/08/21 14:02:20;;;;;;;6.28;4.70;;;;;;;;;;4245833;33;20140;-67
2022/08/21 14:05:00;;;;;;;6.62;4.30;;;;;;;;;;4261139;33;20108;-67
2022/08/21 14:07:29;;;;;;;6.32;4.70;;;;;;;;;;4247703;33;20195;-68
2022/08/21 14:09:55;;;;;;;6.03;4.30;;;;;;;;;;4261159;33;20208;-69
2022/08/21 14:12:41;;;;;;;7.45;4.75;;;;;;;;;;4248164;33;20127;-67
2022/08/21 14:15:09;;;;;;;6.80;5.20;;;;;;;;;;4247941;33;20104;-69
2022/08/21 14:17:39;;;;;;;9.13;4.07;;;;;;;;;;4234295;33;20828;-68
2022/08/21 14:20:11;;;;;;;5.72;4.00;;;;;;;;;;4260784;33;20112;-66
2022/08/21 14:22:45;;;;;;;7.82;4.93;;;;;;;;;;4247709;33;20096;-68
2022/08/21 14:25:11;;;;;;;6.78;4.85;;;;;;;;;;4248023;33;20140;-68
2022/08/21 14:27:44;;;;;;;6.32;4.32;;;;;;;;;;4260635;33;20207;-66
2022/08/21 14:30:21;;;;;;;17.27;4.90;;;;;;;;;;4246801;33;20148;-66
2022/08/21 14:32:47;;;;;;;11.07;4.45;;;;;;;;;;4247471;33;20112;-64
2022/08/21 14:35:14;;;;;;;11.02;4.87;;;;;;;;;;4260311;33;20112;-67
2022/08/21 14:37:44;;;;;;;8.30;5.22;;;;;;;;;;4260212;33;20124;-67
2022/08/21 14:40:11;;;;;;;6.65;4.55;;;;;;;;;;4247496;33;20123;-67
2022/08/21 14:42:37;;;;;;;10.57;4.68;;;;;;;;;;4247433;33;20497;-66
2022/08/21 14:45:14;;;;;;;8.05;5.05;;;;;;;;;;4247656;33;20111;-66
2022/08/21 14:47:42;;;;;;;4.05;3.37;;;;;;;;;;4260658;33;20215;-67
2022/08/21 14:50:10;;;;;;;6.47;3.45;;;;;;;;;;4260572;33;20481;-71
2022/08/21 14:52:36;;;;;;;12.23;5.97;;;;;;;;;;4260665;33;20184;-68
2022/08/21 14:55:04;;;;;;;7.62;5.20;;;;;;;;;;4247422;33;20111;-67
2022/08/21 14:57:30;;;;;;;13.65;4.93;;;;;;;;;;4260384;33;20122;-66
2022/08/21 14:59:57;;;;;;;11.00;6.03;;;;;;;;;;4247555;33;20115;-66
2022/08/21 15:02:23;;;;;;;11.93;7.15;;;;;;;;;;4247395;33;20476;-67
2022/08/21 15:04:49;;;;;;;10.38;5.95;;;;;;;;;;4257117;33;20120;-65
2022/08/21 15:07:15;;;;;;;14.10;6.72;;;;;;;;;;4256364;33;20478;-68
2022/08/21 15:09:41;;;;;;;9.68;5.45;;;;;;;;;;4259879;33;20093;-68
2022/08/21 15:12:07;;;;;;;15.20;7.50;;;;;;;;;;4245563;33;20859;-69
2022/08/21 15:14:35;;;;;;;14.30;6.15;;;;;;;;;;4258698;33;20532;-68
2022/08/21 15:17:03;;;;;;;10.60;6.75;;;;;;;;;;4258661;33;20107;-70
2022/08/21 15:19:29;;;;;;;13.98;7.05;;;;;;;;;;4258974;33;20203;-68
2022/08/21 15:21:55;;;;;;;15.75;7.60;;;;;;;;;;4258591;33;20119;-67
2022/08/21 15:24:22;;;;;;;18.00;8.27;;;;;;;;;;4258737;33;20452;-70